• Join FlightAware (Why Join?)
  • Login
  • US Flag 
10:23AM EDT


 

Airport Tracker/Info


-or-


 

Live Flight TrackerFlight Track Log ✈ N844JD ✈ 21-Apr-2013 ✈ KBFI - PAFA / FAI

Flight Track Log - Related Links

Times and Time Zones

All times are in EDT time to prevent confusion due to time zone crossing. See the N844JD flight status page for this flight to view local times or setup timezone preferences in your user account.

Time Position Orientation Groundspeed Altitude Reporting Facility
EDT Latitude Longitude Course Direction KTS MPH feet Rate Location/Type
04:06PM 47.5011 -122.2781 151° Southeast 173 199 1,700  Level Seattle Center
04:07PM 47.4736 -122.2433 140° Southeast 227 261 3,300 2,640 Climbing Seattle Center
04:07PM 47.4669 -122.2058 105° East 242 278 4,400 3,240 Climbing Seattle Center
04:08PM 47.4992 -122.1506 49° Northeast 299 344 6,600 4,380 Climbing Seattle Center
04:08PM 47.5425 -122.1456 North 293 337 8,800 3,840 Climbing Seattle Center
04:09PM 47.5883 -122.2044 319° Northwest 263 303 12,600 3,240 Climbing Seattle Center
04:10PM 47.5983 -122.3139 278° West 258 297 15,400 2,460 Climbing Seattle Center
04:11PM 47.6161 -122.4119 285° West 267 307 17,700 2,940 Climbing Seattle Center
04:12PM 47.6425 -122.5175 290° West 261 300 21,400 3,000 Climbing Seattle Center
04:13PM 47.6736 -122.6111 296° West 254 292 23,900 2,400 Climbing Seattle Center
04:14PM 47.7019 -122.7081 294° West 258 297 26,300 1,920 Climbing Seattle Center
04:15PM 47.7317 -122.8111 293° West 271 312 27,800 1,440 Climbing Seattle Center
04:17PM 47.7925 -122.8911 319° Northwest 300 345 29,300 1,440 Climbing Seattle Center
04:18PM 47.8628 -122.9597 327° Northwest 303 349 30,800 1,440 Climbing Seattle Center
04:19PM 47.9325 -123.0317 325° Northwest 307 353 32,300 1,440 Climbing Seattle Center
04:20PM 48.0022 -123.1006 327° Northwest 305 351 33,800 1,320 Climbing Seattle Center
04:21PM 48.0689 -123.1692 325° Northwest 297 342 35,000 1,080 Climbing Seattle Center
04:22PM 48.1417 -123.2419 326° Northwest 296 341 36,000 900 Climbing Seattle Center
04:22PM 48.1500 -123.2667 297° West 300 345 36,400 660 Climbing Vancouver Center
04:23PM 48.2333 -123.3500 326° Northwest 300 345 37,000 540 Climbing Vancouver Center
04:24PM 48.2814 -123.3822 336° Northwest 304 350 37,300 300 Climbing Seattle Center
04:26PM 48.4500 -123.5667 324° Northwest 330 380 38,000 180 Climbing Vancouver Center
04:27PM 48.5333 -123.6500 326° Northwest 350 403 38,000  Level Vancouver Center
04:28PM 48.6167 -123.7500 322° Northwest 350 403 38,000  Level Vancouver Center
04:30PM 48.7128 -123.9301 309° West  Level FlightAware Approximate
04:30PM 48.7667 -123.9000 309° West 350 403 38,000  Level Vancouver Center
04:31PM 48.8500 -124.0000 322° Northwest 360 414 38,000  Level Vancouver Center
04:32PM 48.9333 -124.0833 327° Northwest 350 403 38,000  Level Vancouver Center
04:33PM 49.0167 -124.1500 332° Northwest 350 403 38,000  Level Vancouver Center
04:34PM 49.0833 -124.2500 316° Northwest 350 403 38,000  Level Vancouver Center
04:35PM 49.1833 -124.3333 331° Northwest 350 403 38,000  Level Vancouver Center
04:36PM 49.2500 -124.4167 321° Northwest 350 403 38,000  Level Vancouver Center
04:37PM 49.3333 -124.5167 322° Northwest 350 403 38,000  Level Vancouver Center
04:38PM 49.4167 -124.6000 327° Northwest 350 403 38,000  Level Vancouver Center
04:39PM 49.4833 -124.6667 327° Northwest 350 403 38,000  Level Vancouver Center
04:40PM 49.5667 -124.7500 327° Northwest 350 403 38,000  Level Vancouver Center
04:41PM 49.6500 -124.8500 322° Northwest 350 403 38,000  Level Vancouver Center
04:42PM 49.7333 -124.9333 327° Northwest 350 403 38,000  Level Vancouver Center
04:43PM 49.8167 -125.0167 327° Northwest 350 403 38,000  Level Vancouver Center
04:44PM 49.9000 -125.1167 322° Northwest 350 403 38,000  Level Vancouver Center
04:45PM 49.9667 -125.2000 321° Northwest 350 403 38,000  Level Vancouver Center
04:46PM 50.0500 -125.2833 327° Northwest 350 403 38,000  Level Vancouver Center
04:47PM 50.1333 -125.3667 327° Northwest 350 403 38,000  Level Vancouver Center
04:48PM 50.2000 -125.4500 321° Northwest 350 403 38,000  Level Vancouver Center
04:49PM 50.2833 -125.5500 323° Northwest 350 403 38,000  Level Vancouver Center
04:50PM 50.3667 -125.6333 327° Northwest 350 403 38,000  Level Vancouver Center
04:51PM 50.4333 -125.7333 316° Northwest 350 403 38,000  Level Vancouver Center
04:52PM 50.5167 -125.8167 328° Northwest 350 403 38,000  Level Vancouver Center
04:53PM 50.6000 -125.9000 328° Northwest 350 403 38,000  Level Vancouver Center
04:54PM 50.6667 -125.9833 322° Northwest 350 403 38,000  Level Vancouver Center
04:55PM 50.7500 -126.1000 318° Northwest 350 403 38,000  Level Vancouver Center
04:56PM 50.8333 -126.1833 328° Northwest 350 403 38,000  Level Vancouver Center
04:57PM 50.9167 -126.2667 328° Northwest 350 403 38,000  Level Vancouver Center
04:58PM 51.0000 -126.3667 323° Northwest 350 403 38,000  Level Vancouver Center
04:59PM 51.0833 -126.4500 328° Northwest 350 403 38,000  Level Vancouver Center
05:00PM 51.1667 -126.5667 319° Northwest 360 414 38,000  Level Vancouver Center
05:01PM 51.2167 -126.6500 314° West 350 403 38,000  Level Vancouver Center
05:02PM 51.3000 -126.7333 328° Northwest 360 414 38,000  Level Vancouver Center
05:03PM 51.3833 -126.8500 319° Northwest 360 414 38,000  Level Vancouver Center
05:04PM 51.4667 -126.9333 328° Northwest 350 403 38,000  Level Vancouver Center
05:05PM 51.5500 -127.0167 328° Northwest 350 403 38,000  Level Vancouver Center
05:06PM 51.6333 -127.1000 328° Northwest 350 403 38,000  Level Vancouver Center
05:07PM 51.7167 -127.2167 319° Northwest 350 403 38,000  Level Vancouver Center
05:08PM 51.7667 -127.3000 314° West 350 403 38,000  Level Vancouver Center
05:09PM 51.8500 -127.4000 323° Northwest 350 403 38,000  Level Vancouver Center
05:10PM 51.9333 -127.5167 319° Northwest 350 403 38,000  Level Vancouver Center
05:11PM 52.0167 -127.6000 328° Northwest 350 403 38,000  Level Vancouver Center
05:12PM 52.0833 -127.6833 322° Northwest 350 403 38,000  Level Vancouver Center
05:13PM 52.1667 -127.8000 319° Northwest 350 403 38,000  Level Vancouver Center
05:14PM 52.2333 -127.8833 323° Northwest 350 403 38,000  Level Vancouver Center
05:15PM 52.3167 -127.9833 324° Northwest 350 403 38,000  Level Vancouver Center
05:16PM 52.4000 -128.0667 329° Northwest 350 403 38,000  Level Vancouver Center
05:17PM 52.4667 -128.1500 323° Northwest 350 403 38,000  Level Vancouver Center
05:18PM 52.5500 -128.2667 320° Northwest 350 403 38,000  Level Vancouver Center
05:19PM 52.6167 -128.3667 318° Northwest 350 403 38,000  Level Vancouver Center
05:20PM 52.7000 -128.4833 320° Northwest 350 403 38,000  Level Vancouver Center
05:21PM 52.7833 -128.5667 329° Northwest 350 403 38,000  Level Vancouver Center
05:22PM 52.8667 -128.6667 324° Northwest 360 414 38,000  Level Vancouver Center
05:23PM 52.9333 -128.7500 323° Northwest 350 403 38,000  Level Vancouver Center
05:24PM 53.0000 -128.8833 310° West 360 414 38,000  Level Vancouver Center
05:25PM 53.0833 -128.9667 329° Northwest 360 414 38,000  Level Vancouver Center
05:26PM 53.1667 -129.0833 320° Northwest 360 414 38,000  Level Vancouver Center
05:27PM 53.2500 -129.1833 324° Northwest 360 414 38,000  Level Vancouver Center
05:28PM 53.3167 -129.2833 318° Northwest 350 403 38,000  Level Vancouver Center
05:29PM 53.4000 -129.4000 320° Northwest 350 403 38,000  Level Vancouver Center
05:30PM 53.4833 -129.5000 324° Northwest 360 414 38,000  Level Vancouver Center
05:31PM 53.5500 -129.6167 314° West 360 414 38,000  Level Vancouver Center
05:32PM 53.6333 -129.7167 325° Northwest 360 414 38,000  Level Vancouver Center
05:33PM 53.7167 -129.8000 329° Northwest 360 414 38,000  Level Vancouver Center
05:34PM 53.8000 -129.9333 317° Northwest 360 414 38,000  Level Vancouver Center
05:35PM 53.8667 -130.0333 319° Northwest 370 426 38,000  Level Vancouver Center
05:36PM 53.9500 -130.1500 321° Northwest 360 414 38,000  Level Vancouver Center
05:37PM 54.0333 -130.2500 325° Northwest 360 414 38,000  Level Vancouver Center
05:38PM 54.1000 -130.3500 319° Northwest 370 426 38,000  Level Vancouver Center
05:39PM 54.1667 -130.4667 314° West 360 414 38,000  Level Vancouver Center
05:40PM 54.2667 -130.5667 330° Northwest 360 414 38,000  Level Vancouver Center
05:41PM 54.3167 -130.7000 303° West 370 426 38,000  Level Vancouver Center
05:42PM 54.4167 -130.8000 330° Northwest 360 414 38,000  Level Vancouver Center
05:43PM 54.4833 -130.9000 319° Northwest 370 426 38,000  Level Vancouver Center
05:44PM 54.5667 -131.0333 317° Northwest 360 414 38,000  Level Vancouver Center
05:45PM 54.6333 -131.0833 337° Northwest 370 426 38,000  Level Anchorage Center
05:46PM 54.7167 -131.2000 321° Northwest 370 426 38,000  Level Anchorage Center
05:47PM 54.7833 -131.3167 315° West 370 426 38,000  Level Anchorage Center
05:48PM 54.8667 -131.4167 325° Northwest 360 414 38,000  Level Anchorage Center
05:49PM 54.9500 -131.5500 317° Northwest 370 426 38,000  Level Anchorage Center
05:50PM 55.0167 -131.6500 319° Northwest 370 426 38,000  Level Anchorage Center
05:51PM 55.1000 -131.8167 311° West 360 414 38,000  Level Vancouver Center
05:52PM 55.1833 -131.9500 318° Northwest 370 426 38,000  Level Vancouver Center
05:53PM 55.2500 -132.0000 337° Northwest 370 426 38,000  Level Anchorage Center
05:54PM 55.3333 -132.1167 321° Northwest 370 426 38,000  Level Anchorage Center
05:55PM 55.4000 -132.2333 315° West 370 426 38,000  Level Anchorage Center
05:56PM 55.4667 -132.3333 320° Northwest 360 414 38,000  Level Anchorage Center
05:57PM 55.5500 -132.4500 322° Northwest 380 437 38,000  Level Anchorage Center
05:58PM 55.6167 -132.5833 312° West 370 426 38,000  Level Anchorage Center
05:59PM 55.7000 -132.7000 322° Northwest 380 437 38,000  Level Anchorage Center
06:00PM 55.7833 -132.8333 318° Northwest 380 437 38,000  Level Anchorage Center
06:01PM 55.8500 -132.9500 316° Northwest 370 426 38,000  Level Anchorage Center
06:02PM 55.9333 -133.0667 322° Northwest 380 437 38,000  Level Anchorage Center
06:03PM 56.0167 -133.2000 318° Northwest 370 426 38,000  Level Anchorage Center
06:04PM 56.1000 -133.3167 322° Northwest 380 437 38,000  Level Anchorage Center
06:05PM 56.1667 -133.4500 312° West 380 437 38,000  Level Anchorage Center
06:06PM 56.2500 -133.5833 318° Northwest 380 437 38,000  Level Anchorage Center
06:07PM 56.3333 -133.7000 322° Northwest 380 437 38,000  Level Anchorage Center
06:08PM 56.4000 -133.8333 312° West 380 437 38,000  Level Anchorage Center
06:09PM 56.4833 -133.9667 319° Northwest 370 426 38,000  Level Anchorage Center
06:10PM 56.5667 -134.0833 322° Northwest 380 437 38,000  Level Anchorage Center
06:11PM 56.6500 -134.2500 312° West 390 449 38,000  Level Anchorage Center
06:12PM 56.7333 -134.3833 319° Northwest 380 437 38,000  Level Anchorage Center
06:13PM 56.8167 -134.5000 323° Northwest 380 437 38,000  Level Anchorage Center
06:14PM 56.8833 -134.6333 312° West 390 449 38,000  Level Anchorage Center
06:15PM 56.9667 -134.7667 319° Northwest 380 437 38,000 300 Level Anchorage Center
06:16PM 57.0333 -134.9000 313° West 380 437 38,700 600 Climbing Anchorage Center
06:17PM 57.1167 -135.0333 319° Northwest 380 437 39,300 540 Climbing Anchorage Center
06:18PM 57.2000 -135.1667 319° Northwest 370 426 39,800 480 Climbing Anchorage Center
06:19PM 57.2667 -135.3000 313° West 380 437 40,300 600 Climbing Anchorage Center
06:20PM 57.3500 -135.4333 319° Northwest 370 426 41,000 300 Climbing Anchorage Center
06:21PM 57.4167 -135.5667 313° West 370 426 41,000  Level Anchorage Center
06:22PM 57.5000 -135.7000 319° Northwest 380 437 41,000  Level Anchorage Center
06:23PM 57.5667 -135.8333 313° West 380 437 41,000  Level Anchorage Center
06:24PM 57.6500 -135.9833 316° Northwest 380 437 41,000 -240 Level Anchorage Center
06:25PM 57.7167 -136.1167 313° West 380 437 40,600 -540 Descending Anchorage Center
06:26PM 57.8000 -136.2500 320° Northwest 390 449 40,000 -360 Descending Anchorage Center
06:27PM 57.8833 -136.4000 316° Northwest 390 449 40,000  Level Anchorage Center
06:28PM 57.9500 -136.5333 313° West 380 437 40,000  Level Anchorage Center
06:29PM 58.0333 -136.6833 316° Northwest 390 449 40,000  Level Anchorage Center
06:30PM 58.1000 -136.8333 310° West 380 437 40,000  Level Anchorage Center
06:31PM 58.1667 -136.9667 313° West 380 437 40,000  Level Anchorage Center
06:32PM 58.2500 -137.1000 320° Northwest 380 437 40,000  Level Anchorage Center
06:33PM 58.3167 -137.2333 314° West 380 437 40,000  Level Anchorage Center
06:34PM 58.4000 -137.3833 317° Northwest 380 437 40,000  Level Anchorage Center
06:35PM 58.4667 -137.5333 310° West 380 437 40,000  Level Anchorage Center
06:36PM 58.5500 -137.6667 320° Northwest 390 449 40,000  Level Anchorage Center
06:37PM 58.6167 -137.8167 311° West 390 449 40,000  Level Anchorage Center
06:38PM 58.7000 -137.9667 317° Northwest 380 437 40,000  Level Anchorage Center
06:39PM 58.7667 -138.1167 311° West 390 449 40,000  Level Anchorage Center
06:40PM 58.8333 -138.2667 311° West 390 449 40,000  Level Anchorage Center
06:41PM 58.9167 -138.4167 317° Northwest 380 437 40,000  Level Anchorage Center
06:42PM 58.9833 -138.5667 311° West 390 449 40,000  Level Anchorage Center
06:43PM 59.0667 -138.7167 317° Northwest 390 449 40,000  Level Anchorage Center
06:44PM 59.1333 -138.8667 311° West 390 449 40,000  Level Anchorage Center
06:45PM 59.2167 -139.0167 317° Northwest 390 449 40,000  Level Anchorage Center
06:46PM 59.2833 -139.1667 311° West 390 449 40,000  Level Anchorage Center
06:47PM 59.3500 -139.3333 308° West 390 449 40,000  Level Anchorage Center
06:48PM 59.4333 -139.4833 318° Northwest 390 449 40,000  Level Anchorage Center
06:49PM 59.5167 -139.6500 315° West 400 460 40,000  Level Anchorage Center
06:50PM 59.6167 -139.7667 329° Northwest 410 472 40,000  Level Anchorage Center
06:51PM 59.7167 -139.8833 330° Northwest 410 472 40,000  Level Anchorage Center
06:52PM 59.8000 -139.9833 329° Northwest 400 460 40,000  Level Anchorage Center
06:53PM 59.9000 -140.1000 330° Northwest 400 460 40,000  Level Anchorage Center
06:54PM 60.0000 -140.2167 330° Northwest 400 460 40,000  Level Anchorage Center
06:55PM 60.1000 -140.3333 330° Northwest 400 460 40,000  Level Anchorage Center
06:56PM 60.2000 -140.4500 330° Northwest 400 460 40,000  Level Anchorage Center
06:57PM 60.2833 -140.5667 325° Northwest 410 472 40,000  Level Anchorage Center
06:58PM 60.3833 -140.6667 334° Northwest 400 460 40,000  Level Anchorage Center
06:59PM 60.4833 -140.7833 330° Northwest 400 460 40,000  Level Anchorage Center
07:00PM 60.5833 -140.9167 327° Northwest 400 460 40,000  Level Anchorage Center
07:01PM 60.6833 -141.0333 330° Northwest 410 472 40,000  Level Anchorage Center
07:02PM 60.7667 -141.1500 326° Northwest 410 472 40,000  Level Anchorage Center
07:03PM 60.8667 -141.2667 330° Northwest 410 472 40,000  Level Anchorage Center
07:04PM 60.9667 -141.4000 327° Northwest 410 472 40,000  Level Anchorage Center
07:05PM 61.0667 -141.5167 331° Northwest 410 472 40,000  Level Anchorage Center
07:06PM 61.1667 -141.6500 327° Northwest 410 472 40,000  Level Anchorage Center
07:07PM 61.2667 -141.7667 331° Northwest 410 472 40,000  Level Anchorage Center
07:08PM 61.3500 -141.9000 323° Northwest 410 472 40,000  Level Anchorage Center
07:09PM 61.4500 -142.0167 331° Northwest 410 472 40,000  Level Anchorage Center
07:10PM 61.5500 -142.1500 328° Northwest 410 472 40,000  Level Anchorage Center
07:11PM 61.6500 -142.2667 331° Northwest 410 472 40,000  Level Anchorage Center
07:12PM 61.7333 -142.4000 323° Northwest 410 472 40,000  Level Anchorage Center
07:13PM 61.8333 -142.5333 328° Northwest 410 472 40,000  Level Anchorage Center
07:14PM 61.9333 -142.6500 331° Northwest 410 472 40,000  Level Anchorage Center
07:15PM 62.0333 -142.7833 328° Northwest 400 460 40,000  Level Anchorage Center
07:16PM 62.1333 -142.9167 328° Northwest 410 472 40,000  Level Anchorage Center
07:17PM 62.2167 -143.0500 323° Northwest 410 472 40,000  Level Anchorage Center
07:18PM 62.3167 -143.1833 328° Northwest 410 472 40,000  Level Anchorage Center
07:19PM 62.4167 -143.3167 328° Northwest 400 460 40,000  Level Anchorage Center
07:20PM 62.5000 -143.4667 320° Northwest 430 495 40,000  Level Anchorage Center
07:21PM 62.6000 -143.6000 328° Northwest 410 472 40,000  Level Anchorage Center
07:22PM 62.6833 -143.7667 317° Northwest 390 449 40,000  Level Anchorage Center
07:23PM 62.7667 -143.9167 321° Northwest 410 472 40,000  Level Anchorage Center
07:24PM 62.8500 -144.0833 318° Northwest 400 460 40,000  Level Anchorage Center
07:25PM 62.9333 -144.2667 315° West 400 460 40,000  Level Anchorage Center
07:26PM 63.0000 -144.4667 306° West 410 472 40,000  Level Anchorage Center
07:27PM 63.0667 -144.6500 309° West 410 472 40,000 -180 Level Anchorage Center
07:28PM 63.1333 -144.8167 312° West 400 460 39,700 -540 Descending Anchorage Center
07:29PM 63.2167 -145.0333 311° West 400 460 39,000 -660 Descending Anchorage Center
07:30PM 63.3000 -145.2333 313° West 420 483 38,400 -720 Descending Anchorage Center
07:31PM 63.3667 -145.4167 309° West 410 472 37,600 -900 Descending Anchorage Center
07:32PM 63.4500 -145.5833 318° Northwest 410 472 36,700 -1,020 Descending Anchorage Center
07:33PM 63.5500 -145.8000 316° Northwest 420 483 35,600 -1,080 Descending Anchorage Center
07:34PM 63.6333 -145.9833 316° Northwest 430 495 34,600 -1,200 Descending Anchorage Center
07:35PM 63.7167 -146.1667 316° Northwest 430 495 33,300 -1,260 Descending Anchorage Center
07:36PM 63.8167 -146.3000 330° Northwest 430 495 32,100 -1,620 Descending Anchorage Center
07:37PM 63.9167 -146.4500 327° Northwest 430 495 30,100 -2,160 Descending Anchorage Center
07:38PM 64.0333 -146.6167 328° Northwest 430 495 27,800 -2,340 Descending Anchorage Center
07:40PM 64.1501 -146.7932 327° Northwest  Level FlightAware Approximate
07:47PM 64.7223 -147.6945 320° Northwest  Level FlightAware Approximate
07:48PM 64.7974 -147.8448 320° Northwest  Level FlightAware Approximate
07:49PM 64.8000 -147.8500 320° Northwest  Level FlightAware Approximate
07:50PM 64.8151 -147.8564 320° Northwest  Level Estimated
07:51PM 64.8151 -147.8564 320° Northwest  Level Estimated
07:52PM 64.8151 -147.8564 320° Northwest  Level Estimated
07:53PM 64.8151 -147.8564 320° Northwest  Level Estimated
07:54PM 64.8151 -147.8564 320° Northwest  Level Estimated
07:55PM 64.8151 -147.8564 320° Northwest  Level Estimated
07:56PM 64.8151 -147.8564 320° Northwest  Level Estimated
07:57PM 64.8151 -147.8564 320° Northwest  Level Estimated
07:58PM 64.8151 -147.8564 320° Northwest  Level Estimated
07:59PM 64.8151 -147.8564 320° Northwest  Level Estimated
08:00PM 64.8151 -147.8564 320° Northwest  Level Estimated
08:01PM 64.8151 -147.8564 320° Northwest  Level Estimated
08:02PM 64.8151 -147.8564 320° Northwest  Level Estimated
08:03PM 64.8151 -147.8564 320° Northwest  Level Estimated
08:04PM 64.8151 -147.8564 320° Northwest  Level Estimated
08:05PM 64.8151 -147.8564 320° Northwest  Level Estimated
08:06PM 64.8151 -147.8564 320° Northwest  Level Estimated